createdAt,value
2022-11-05T00:01:53.858Z,15.64
2022-11-05T00:04:38.696Z,15.58
2022-11-05T00:07:31.791Z,15.55
2022-11-05T00:10:00.810Z,15.51
2022-11-05T00:12:45.868Z,15.47
2022-11-05T00:15:30.577Z,15.44
2022-11-05T00:17:56.821Z,15.40
2022-11-05T00:20:23.121Z,15.37
2022-11-05T00:23:08.133Z,15.34
2022-11-05T00:25:36.972Z,15.31
2022-11-05T00:28:04.045Z,15.26
2022-11-05T00:30:30.584Z,15.24
2022-11-05T00:33:00.930Z,15.21
2022-11-05T00:35:27.506Z,15.16
2022-11-05T00:37:54.087Z,15.13
2022-11-05T00:40:20.496Z,15.09
2022-11-05T00:43:05.726Z,15.05
2022-11-05T00:45:32.006Z,15.01
2022-11-05T00:48:17.001Z,14.99
2022-11-05T00:50:43.420Z,14.94
2022-11-05T00:53:10.135Z,14.91
2022-11-05T00:55:38.209Z,14.89
2022-11-05T00:58:06.498Z,14.85
2022-11-05T01:00:34.702Z,14.82
2022-11-05T01:03:02.096Z,14.79
2022-11-05T01:05:28.932Z,14.75
2022-11-05T01:07:55.497Z,14.72
2022-11-05T01:10:22.719Z,14.70
2022-11-05T01:12:49.259Z,14.68
2022-11-05T01:15:16.315Z,14.64
2022-11-05T01:17:42.610Z,14.60
2022-11-05T01:20:09.349Z,14.57
2022-11-05T01:22:35.849Z,14.55
2022-11-05T01:25:02.194Z,14.51
2022-11-05T01:27:28.944Z,14.48
2022-11-05T01:29:55.236Z,14.44
2022-11-05T01:32:21.938Z,14.43
2022-11-05T01:34:48.403Z,14.39
2022-11-05T01:37:14.653Z,14.38
2022-11-05T01:39:40.918Z,14.36
2022-11-05T01:42:33.249Z,14.35
2022-11-05T01:45:17.417Z,14.32
2022-11-05T01:47:49.361Z,14.28
2022-11-05T01:50:34.422Z,14.26
2022-11-05T01:53:04.662Z,14.20
2022-11-05T01:55:35.334Z,14.18
2022-11-05T01:58:02.840Z,14.14
2022-11-05T02:00:29.201Z,14.10
2022-11-05T02:02:55.683Z,14.08
2022-11-05T02:05:23.262Z,14.06
2022-11-05T02:07:51.109Z,14.04
2022-11-05T02:10:20.388Z,14.02
2022-11-05T02:12:48.237Z,14.02
2022-11-05T02:15:16.812Z,14.00
2022-11-05T02:17:46.085Z,13.98
2022-11-05T02:20:18.658Z,13.97
2022-11-05T02:22:47.628Z,13.96
2022-11-05T02:25:32.240Z,13.94
2022-11-05T02:28:10.729Z,13.91
2022-11-05T02:30:55.526Z,13.88
2022-11-05T02:33:40.827Z,13.85
2022-11-05T02:36:07.267Z,13.83
2022-11-05T02:38:52.100Z,13.80
2022-11-05T02:41:30.212Z,13.78
2022-11-05T02:44:06.931Z,13.77
2022-11-05T02:46:36.020Z,13.76
2022-11-05T02:49:24.496Z,13.74
2022-11-05T02:51:58.328Z,13.72
2022-11-05T02:54:29.032Z,13.70
2022-11-05T02:56:56.528Z,13.68
2022-11-05T02:59:22.779Z,13.66
2022-11-05T03:01:49.937Z,13.64
2022-11-05T03:04:17.630Z,13.61
2022-11-05T03:06:47.110Z,13.61
2022-11-05T03:09:32.353Z,13.58
2022-11-05T03:12:05.412Z,13.56
2022-11-05T03:14:42.078Z,13.55
2022-11-05T03:17:18.179Z,13.53
2022-11-05T03:20:05.032Z,13.51
2022-11-05T03:22:35.160Z,13.48
2022-11-05T03:25:05.873Z,13.46
2022-11-05T03:27:35.211Z,13.44
2022-11-05T03:30:10.044Z,13.42
2022-11-05T03:32:39.510Z,13.42
2022-11-05T03:35:10.598Z,13.42
2022-11-05T03:37:39.797Z,13.41
2022-11-05T03:40:07.393Z,13.42
2022-11-05T03:42:35.748Z,13.41
2022-11-05T03:45:05.495Z,13.41
2022-11-05T03:47:35.225Z,13.39
2022-11-05T03:50:15.544Z,13.38
2022-11-05T03:52:47.012Z,13.37
2022-11-05T03:55:13.591Z,13.35
2022-11-05T03:57:43.244Z,13.33
2022-11-05T04:00:10.709Z,13.31
2022-11-05T04:02:37.500Z,13.27
2022-11-05T04:05:04.135Z,13.25
2022-11-05T04:07:49.055Z,13.22
2022-11-05T04:10:34.270Z,13.20
2022-11-05T04:13:19.516Z,13.17
2022-11-05T04:16:04.924Z,13.12
2022-11-05T04:18:31.205Z,13.08
2022-11-05T04:21:16.267Z,13.06
2022-11-05T04:24:01.747Z,13.01
2022-11-05T04:26:30.504Z,12.98
2022-11-05T04:29:15.546Z,12.97
2022-11-05T04:31:41.995Z,12.96
2022-11-05T04:34:08.423Z,12.97
2022-11-05T04:36:35.096Z,12.96
2022-11-05T04:39:01.573Z,12.96
2022-11-05T04:41:28.001Z,12.95
2022-11-05T04:43:54.460Z,12.96
2022-11-05T04:46:20.769Z,12.97
2022-11-05T04:48:47.186Z,12.98
2022-11-05T04:51:13.516Z,12.97
2022-11-05T04:53:39.777Z,12.98
2022-11-05T04:56:10.500Z,13.00
2022-11-05T04:58:40.753Z,13.00
2022-11-05T05:01:11.236Z,13.02
2022-11-05T05:03:37.688Z,13.03
2022-11-05T05:06:04.357Z,13.04
2022-11-05T05:08:30.662Z,13.06
2022-11-05T05:11:03.470Z,13.06
2022-11-05T05:13:29.927Z,13.06
2022-11-05T05:15:57.624Z,13.08
2022-11-05T05:18:26.309Z,13.09
2022-11-05T05:21:15.783Z,13.07
2022-11-05T05:23:42.350Z,13.07
2022-11-05T05:26:08.891Z,13.05
2022-11-05T05:28:35.432Z,13.04
2022-11-05T05:31:04.083Z,13.02
2022-11-05T05:33:30.542Z,13.00
2022-11-05T05:35:57.250Z,12.97
2022-11-05T05:38:23.895Z,12.95
2022-11-05T05:40:51.496Z,12.93
2022-11-05T05:43:18.196Z,12.90
2022-11-05T05:45:44.467Z,12.90
2022-11-05T05:48:10.694Z,12.89
2022-11-05T05:50:36.979Z,12.89
2022-11-05T05:53:03.663Z,12.89
2022-11-05T05:55:29.902Z,12.89
2022-11-05T05:57:56.344Z,12.89
2022-11-05T06:00:22.651Z,12.90
2022-11-05T06:02:50.585Z,12.90
2022-11-05T06:05:16.880Z,12.90
2022-11-05T06:07:43.095Z,12.90
2022-11-05T06:10:09.448Z,12.92
2022-11-05T06:12:35.733Z,12.92
2022-11-05T06:15:02.365Z,12.91
2022-11-05T06:17:28.594Z,12.93
2022-11-05T06:19:54.964Z,12.92
2022-11-05T06:22:22.487Z,12.91
2022-11-05T06:24:48.916Z,12.91
2022-11-05T06:27:15.349Z,12.92
2022-11-05T06:29:41.554Z,12.91
2022-11-05T06:32:08.200Z,12.91
2022-11-05T06:34:34.797Z,12.90
2022-11-05T06:37:01.252Z,12.90
2022-11-05T06:39:27.574Z,12.89
2022-11-05T06:44:40.267Z,12.88
2022-11-05T06:47:06.766Z,12.88
2022-11-05T06:49:33.180Z,12.88
2022-11-05T06:51:59.464Z,12.88
2022-11-05T06:54:25.740Z,12.88
2022-11-05T06:56:52.006Z,12.88
2022-11-05T06:59:18.218Z,12.87
2022-11-05T07:01:44.690Z,12.89
2022-11-05T07:04:14.205Z,12.89
2022-11-05T07:06:40.638Z,12.89
2022-11-05T07:09:06.904Z,12.91
2022-11-05T07:11:33.390Z,12.92
2022-11-05T07:14:01.099Z,12.92
2022-11-05T07:16:27.520Z,12.94
2022-11-05T07:18:55.819Z,12.95
2022-11-05T07:21:22.149Z,12.96
2022-11-05T07:23:48.751Z,12.98
2022-11-05T07:26:15.014Z,12.97
2022-11-05T07:28:41.375Z,13.00
2022-11-05T07:31:10.052Z,13.02
2022-11-05T07:33:36.874Z,13.06
2022-11-05T07:36:03.542Z,13.09
2022-11-05T07:38:29.830Z,13.14
2022-11-05T07:41:00.217Z,13.16
2022-11-05T07:43:26.490Z,13.20
2022-11-05T07:45:52.996Z,13.25
2022-11-05T07:48:20.826Z,13.29
2022-11-05T07:50:51.110Z,13.36
2022-11-05T07:53:17.417Z,13.41
2022-11-05T07:55:45.978Z,13.46
2022-11-05T07:58:12.380Z,13.53
2022-11-05T08:00:39.113Z,13.58
2022-11-05T08:03:09.002Z,13.65
2022-11-05T08:05:36.794Z,13.71
2022-11-05T08:08:03.619Z,13.77
2022-11-05T08:10:29.913Z,13.84
2022-11-05T08:12:56.472Z,13.90
2022-11-05T08:15:23.711Z,13.96
2022-11-05T08:17:50.405Z,14.03
2022-11-05T08:20:16.755Z,14.08
2022-11-05T08:22:43.619Z,14.15
2022-11-05T08:25:10.397Z,14.21
2022-11-05T08:27:37.120Z,14.28
2022-11-05T08:30:04.676Z,14.35
2022-11-05T08:32:30.905Z,14.42
2022-11-05T08:34:57.333Z,14.48
2022-11-05T08:37:23.754Z,14.55
2022-11-05T08:39:50.056Z,14.60
2022-11-05T08:42:16.412Z,14.68
2022-11-05T08:44:42.641Z,14.74
2022-11-05T08:47:09.063Z,14.81
2022-11-05T08:49:35.401Z,14.87
2022-11-05T08:52:01.742Z,14.93
2022-11-05T08:54:28.590Z,15.00
2022-11-05T08:56:55.015Z,15.07
2022-11-05T08:59:21.488Z,15.15
2022-11-05T09:01:50.696Z,15.22
2022-11-05T09:04:17.237Z,15.28
2022-11-05T09:06:46.055Z,15.36
2022-11-05T09:09:12.292Z,15.42
2022-11-05T09:12:10.096Z,15.48
2022-11-05T09:14:27.178Z,15.54
2022-11-05T09:16:53.523Z,15.58
2022-11-05T09:19:19.889Z,15.65
2022-11-05T09:21:46.103Z,15.71
2022-11-05T09:24:12.310Z,15.80
2022-11-05T09:26:38.603Z,15.86
2022-11-05T09:29:04.916Z,15.92
2022-11-05T09:31:31.579Z,15.98
2022-11-05T09:33:57.932Z,16.05
2022-11-05T09:36:24.358Z,16.10
2022-11-05T09:38:50.630Z,16.14
2022-11-05T09:41:26.951Z,16.19
2022-11-05T09:44:04.789Z,16.24
2022-11-05T09:46:40.837Z,16.30
2022-11-05T09:49:12.287Z,16.36
2022-11-05T09:51:40.647Z,16.41
2022-11-05T09:54:06.950Z,16.48
2022-11-05T09:56:34.760Z,16.54
2022-11-05T09:59:02.978Z,16.60
2022-11-05T10:01:31.906Z,16.65
2022-11-05T10:03:59.873Z,16.72
2022-11-05T10:06:27.070Z,16.75
2022-11-05T10:09:14.763Z,16.80
2022-11-05T10:11:53.782Z,16.87
2022-11-05T10:14:43.817Z,16.89
2022-11-05T10:17:10.051Z,16.93
2022-11-05T10:19:42.080Z,16.95
2022-11-05T10:22:13.208Z,16.98
2022-11-05T10:24:41.624Z,17.01
2022-11-05T10:27:11.184Z,17.04
2022-11-05T10:29:37.623Z,17.08
2022-11-05T10:32:05.730Z,17.12
2022-11-05T10:34:33.666Z,17.17
2022-11-05T10:37:00.220Z,17.21
2022-11-05T10:39:27.851Z,17.26
2022-11-05T10:41:54.171Z,17.31
2022-11-05T10:44:31.507Z,17.38
2022-11-05T10:47:06.299Z,17.45
2022-11-05T10:49:42.450Z,17.54
2022-11-05T10:52:21.493Z,17.62
2022-11-05T10:54:48.872Z,17.70
2022-11-05T10:57:29.226Z,17.79
2022-11-05T11:00:18.230Z,17.90
2022-11-05T11:02:47.289Z,18.00
2022-11-05T11:05:22.448Z,18.09
2022-11-05T11:08:21.682Z,18.19
2022-11-05T11:10:48.093Z,18.32
2022-11-05T11:13:20.561Z,18.45
2022-11-05T11:15:46.899Z,18.61
2022-11-05T11:18:26.433Z,18.73
2022-11-05T11:20:52.868Z,18.84
2022-11-05T11:23:20.293Z,18.93
2022-11-05T11:25:48.008Z,18.98
2022-11-05T11:28:20.207Z,18.99
2022-11-05T11:30:47.982Z,18.99
2022-11-05T11:33:23.949Z,18.98
2022-11-05T11:35:50.488Z,18.94
2022-11-05T11:38:17.201Z,18.91
2022-11-05T11:40:44.109Z,18.88
2022-11-05T11:43:30.532Z,18.87
2022-11-05T11:46:03.784Z,18.84
2022-11-05T11:48:34.478Z,18.80
2022-11-05T11:51:15.356Z,18.78
2022-11-05T11:53:41.608Z,18.74
2022-11-05T11:56:18.715Z,18.70
2022-11-05T11:58:45.042Z,18.67
2022-11-05T12:01:32.172Z,18.65
2022-11-05T12:04:09.605Z,18.61
2022-11-05T12:07:02.667Z,18.60
2022-11-05T12:09:49.748Z,18.57
2022-11-05T12:12:17.822Z,18.55
2022-11-05T12:14:56.509Z,18.54
2022-11-05T12:17:23.187Z,18.54
2022-11-05T12:20:01.252Z,18.56
2022-11-05T12:22:36.774Z,18.59
2022-11-05T12:25:13.156Z,18.62
2022-11-05T12:27:58.475Z,18.70
2022-11-05T12:30:37.941Z,18.76
2022-11-05T12:33:15.263Z,18.85
2022-11-05T12:35:54.842Z,18.91
2022-11-05T12:38:33.213Z,18.96
2022-11-05T12:41:15.468Z,18.98
2022-11-05T12:43:47.775Z,19.00
2022-11-05T12:46:40.554Z,19.03
2022-11-05T12:49:30.765Z,19.05
2022-11-05T12:51:59.901Z,19.05
2022-11-05T12:54:26.195Z,19.06
2022-11-05T12:57:01.394Z,19.05
2022-11-05T12:59:36.403Z,19.04
2022-11-05T13:02:02.888Z,19.03
2022-11-05T13:04:35.865Z,19.00
2022-11-05T13:07:04.117Z,18.99
2022-11-05T13:09:41.493Z,18.97
2022-11-05T13:12:13.098Z,18.96
2022-11-05T13:14:45.285Z,18.95
2022-11-05T13:17:14.752Z,18.94
2022-11-05T13:19:46.480Z,18.92
2022-11-05T13:22:31.908Z,18.90
2022-11-05T13:25:01.624Z,18.88
2022-11-05T13:27:40.507Z,18.85
2022-11-05T13:30:09.591Z,18.83
2022-11-05T13:32:42.060Z,18.80
2022-11-05T13:35:15.512Z,18.79
2022-11-05T13:38:02.026Z,18.80
2022-11-05T13:40:41.280Z,18.77
2022-11-05T13:43:16.171Z,18.77
2022-11-05T13:45:42.419Z,18.76
2022-11-05T13:48:20.921Z,18.78
2022-11-05T13:50:56.288Z,18.77
2022-11-05T13:53:31.877Z,18.79
2022-11-05T13:56:10.642Z,18.79
2022-11-05T13:58:49.678Z,18.80
2022-11-05T14:01:27.844Z,18.80
2022-11-05T14:03:55.793Z,18.79
2022-11-05T14:06:24.152Z,18.79
2022-11-05T14:08:51.427Z,18.80
2022-11-05T14:11:22.528Z,18.80
2022-11-05T14:13:51.398Z,18.80
2022-11-05T14:16:19.397Z,18.80
2022-11-05T14:18:53.147Z,18.80
2022-11-05T14:21:25.331Z,18.79
2022-11-05T14:24:10.639Z,18.77
2022-11-05T14:26:36.916Z,18.74
2022-11-05T14:29:03.147Z,18.72
2022-11-05T14:31:54.332Z,18.70
2022-11-05T14:34:19.277Z,18.67
2022-11-05T14:37:05.801Z,18.63
2022-11-05T14:39:32.580Z,18.58
2022-11-05T14:42:37.439Z,18.53
2022-11-05T14:45:22.401Z,18.47
2022-11-05T14:47:55.422Z,18.40
2022-11-05T14:50:21.712Z,18.35
2022-11-05T14:52:53.951Z,18.31
2022-11-05T14:55:26.244Z,18.24
2022-11-05T14:57:52.655Z,18.18
2022-11-05T15:00:28.068Z,18.13
2022-11-05T15:03:00.823Z,18.08
2022-11-05T15:05:37.214Z,18.03
2022-11-05T15:08:21.958Z,17.97
2022-11-05T15:10:49.095Z,17.93
2022-11-05T15:13:25.559Z,17.89
2022-11-05T15:15:52.456Z,17.84
2022-11-05T15:18:29.269Z,17.82
2022-11-05T15:20:57.391Z,17.77
2022-11-05T15:23:25.173Z,17.72
2022-11-05T15:26:11.586Z,17.68
2022-11-05T15:28:45.935Z,17.63
2022-11-05T15:31:13.076Z,17.59
2022-11-05T15:33:40.729Z,17.56
2022-11-05T15:36:11.062Z,17.53
2022-11-05T15:38:38.135Z,17.51
2022-11-05T15:41:17.242Z,17.49
2022-11-05T15:43:48.209Z,17.47
2022-11-05T15:46:16.049Z,17.45
2022-11-05T15:48:45.498Z,17.42
2022-11-05T15:51:13.044Z,17.41
2022-11-05T15:54:02.239Z,17.37
2022-11-05T15:56:33.983Z,17.34
2022-11-05T15:59:00.253Z,17.31
2022-11-05T16:01:28.053Z,17.30
2022-11-05T16:03:56.621Z,17.27
2022-11-05T16:08:50.257Z,17.10
2022-11-05T16:11:24.995Z,17.04
2022-11-05T16:13:51.860Z,16.99
2022-11-05T16:16:18.162Z,16.95
2022-11-05T16:18:45.458Z,16.90
2022-11-05T16:21:23.185Z,16.83
2022-11-05T16:23:55.112Z,16.84
2022-11-05T16:27:02.319Z,16.78
2022-11-05T16:29:32.074Z,16.76
2022-11-05T16:32:02.210Z,16.72
2022-11-05T16:34:41.355Z,16.67
2022-11-05T16:37:13.492Z,16.66
2022-11-05T16:39:40.478Z,16.65
2022-11-05T16:42:33.058Z,16.59
2022-11-05T16:44:59.738Z,16.60
2022-11-05T16:47:26.475Z,16.59
2022-11-05T16:49:52.972Z,16.58
2022-11-05T16:52:19.298Z,16.56
2022-11-05T16:54:45.654Z,16.54
2022-11-05T16:57:27.503Z,16.52
2022-11-05T16:59:55.149Z,16.54
2022-11-05T17:02:22.053Z,16.53
2022-11-05T17:04:48.630Z,16.51
2022-11-05T17:07:15.461Z,16.49
2022-11-05T17:09:43.385Z,16.49
2022-11-05T17:12:13.154Z,16.47
2022-11-05T17:14:39.702Z,16.47
2022-11-05T17:17:06.861Z,16.45
2022-11-05T17:19:34.342Z,16.45
2022-11-05T17:22:00.708Z,16.44
2022-11-05T17:24:27.068Z,16.42
2022-11-05T17:26:53.495Z,16.41
2022-11-05T17:29:19.836Z,16.38
2022-11-05T17:31:46.220Z,16.39
2022-11-05T17:34:12.988Z,16.38
2022-11-05T17:36:39.517Z,16.36
2022-11-05T17:39:05.926Z,16.34
2022-11-05T17:41:32.310Z,16.32
2022-11-05T17:43:58.682Z,16.32
2022-11-05T17:46:25.053Z,16.28
2022-11-05T17:48:51.572Z,16.27
2022-11-05T17:51:19.802Z,16.26
2022-11-05T17:53:52.111Z,16.25
2022-11-05T17:56:32.246Z,16.24
2022-11-05T17:59:00.785Z,16.25
2022-11-05T18:01:35.686Z,16.22
2022-11-05T18:04:08.275Z,16.24
2022-11-05T18:06:39.734Z,16.23
2022-11-05T18:09:07.413Z,16.22
2022-11-05T18:11:37.189Z,16.22
2022-11-05T18:14:03.872Z,16.24
2022-11-05T18:16:30.722Z,16.24
2022-11-05T18:18:57.278Z,16.24
2022-11-05T18:21:23.729Z,16.26
2022-11-05T18:23:52.391Z,16.26
2022-11-05T18:26:19.332Z,16.27
2022-11-05T18:28:46.334Z,16.27
2022-11-05T18:31:20.805Z,16.26
2022-11-05T18:33:50.880Z,16.27
2022-11-05T18:36:21.149Z,16.28
2022-11-05T18:38:48.652Z,16.29
2022-11-05T18:41:15.387Z,16.30
2022-11-05T18:43:42.249Z,16.30
2022-11-05T18:46:29.291Z,16.30
2022-11-05T18:48:59.559Z,16.32
2022-11-05T18:51:26.549Z,16.31
2022-11-05T18:53:54.509Z,16.31
2022-11-05T18:56:21.458Z,16.31
2022-11-05T18:58:47.886Z,16.30
2022-11-05T19:01:16.578Z,16.28
2022-11-05T19:03:43.524Z,16.28
2022-11-05T19:06:10.238Z,16.28
2022-11-05T19:08:37.069Z,16.27
2022-11-05T19:11:09.753Z,16.26
2022-11-05T19:13:36.445Z,16.27
2022-11-05T19:16:08.097Z,16.25
2022-11-05T19:18:35.066Z,16.27
2022-11-05T19:21:01.973Z,16.26
2022-11-05T19:23:28.328Z,16.25
2022-11-05T19:25:54.873Z,16.24
2022-11-05T19:28:21.471Z,16.24
2022-11-05T19:30:47.922Z,16.22
2022-11-05T19:33:14.326Z,16.22
2022-11-05T19:35:41.789Z,16.22
2022-11-05T19:38:08.120Z,16.23
2022-11-05T19:40:36.598Z,16.21
2022-11-05T19:43:03.021Z,16.24
2022-11-05T19:45:44.018Z,16.24
2022-11-05T19:48:16.154Z,16.23
2022-11-05T19:50:45.256Z,16.24
2022-11-05T19:53:11.749Z,16.24
2022-11-05T19:55:41.807Z,16.24
2022-11-05T19:58:08.911Z,16.25
2022-11-05T20:00:35.450Z,16.25
2022-11-05T20:03:02.508Z,16.24
2022-11-05T20:05:28.889Z,16.25
2022-11-05T20:07:55.784Z,16.24
2022-11-05T20:10:22.275Z,16.23
2022-11-05T20:12:48.990Z,16.23
2022-11-05T20:15:15.353Z,16.22
2022-11-05T20:17:41.739Z,16.21
2022-11-05T20:20:08.574Z,16.21
2022-11-05T20:22:34.918Z,16.19
2022-11-05T20:25:01.261Z,16.19
2022-11-05T20:27:28.569Z,16.20
2022-11-05T20:29:55.945Z,16.19
2022-11-05T20:32:22.813Z,16.18
2022-11-05T20:34:49.171Z,16.18
2022-11-05T20:37:15.558Z,16.16
2022-11-05T20:39:41.950Z,16.16
2022-11-05T20:42:08.259Z,16.14
2022-11-05T20:44:34.582Z,16.16
2022-11-05T20:47:01.161Z,16.14
2022-11-05T20:49:27.590Z,16.13
2022-11-05T20:51:55.967Z,16.14
2022-11-05T20:54:22.501Z,16.15
2022-11-05T20:56:48.979Z,16.13
2022-11-05T20:59:15.503Z,16.12
2022-11-05T21:01:42.069Z,16.12
2022-11-05T21:04:08.456Z,16.12
2022-11-05T21:06:35.982Z,16.13
2022-11-05T21:09:03.989Z,16.12
2022-11-05T21:11:50.405Z,16.13
2022-11-05T21:14:16.836Z,16.13
2022-11-05T21:16:43.321Z,16.13
2022-11-05T21:19:09.773Z,16.13
2022-11-05T21:21:40.921Z,16.14
2022-11-05T21:24:09.199Z,16.14
2022-11-05T21:26:35.554Z,16.16
2022-11-05T21:29:02.104Z,16.15
2022-11-05T21:31:28.644Z,16.16
2022-11-05T21:33:55.443Z,16.18
2022-11-05T21:36:22.282Z,16.16
2022-11-05T21:38:48.567Z,16.16
2022-11-05T21:41:15.682Z,16.15
2022-11-05T21:43:42.720Z,16.12
2022-11-05T21:46:12.198Z,16.10
2022-11-05T21:48:39.305Z,16.10
2022-11-05T21:51:24.678Z,16.07
2022-11-05T21:54:09.555Z,16.05
2022-11-05T21:56:54.864Z,16.02
2022-11-05T21:59:43.517Z,16.00
2022-11-05T22:02:13.203Z,15.96
2022-11-05T22:04:42.309Z,15.93
2022-11-05T22:07:10.920Z,15.91
2022-11-05T22:09:37.390Z,15.89
2022-11-05T22:12:04.600Z,15.92
2022-11-05T22:14:31.996Z,15.90
2022-11-05T22:16:58.838Z,15.88
2022-11-05T22:19:26.167Z,15.86
2022-11-05T22:21:53.086Z,15.82
2022-11-05T22:24:20.718Z,15.79
2022-11-05T22:26:48.010Z,15.79
2022-11-05T22:29:14.525Z,15.78
2022-11-05T22:31:41.265Z,15.76
2022-11-05T22:34:11.603Z,15.75
2022-11-05T22:36:38.177Z,15.72
2022-11-05T22:39:05.406Z,15.70
2022-11-05T22:41:34.136Z,15.68
2022-11-05T22:44:00.549Z,15.67
2022-11-05T22:46:27.332Z,15.65
2022-11-05T22:48:53.915Z,15.64
2022-11-05T22:51:22.974Z,15.62
2022-11-05T22:53:50.031Z,15.62
2022-11-05T22:56:20.117Z,15.60
2022-11-05T22:58:47.294Z,15.62
2022-11-05T23:01:15.714Z,15.62
2022-11-05T23:03:43.783Z,15.60
2022-11-05T23:06:33.000Z,15.60
2022-11-05T23:09:19.192Z,15.62
2022-11-05T23:11:50.126Z,15.61
2022-11-05T23:14:16.665Z,15.61
2022-11-05T23:17:02.461Z,15.60
2022-11-05T23:19:48.511Z,15.60
2022-11-05T23:22:45.266Z,15.57
2022-11-05T23:25:17.116Z,15.58
2022-11-05T23:27:45.368Z,15.56
2022-11-05T23:30:18.292Z,15.53
2022-11-05T23:32:45.001Z,15.51
2022-11-05T23:35:11.779Z,15.48
2022-11-05T23:37:57.003Z,15.46
2022-11-05T23:40:51.683Z,15.39
2022-11-05T23:43:36.739Z,15.39
2022-11-05T23:46:21.957Z,15.37
2022-11-05T23:48:48.294Z,15.34
2022-11-05T23:51:14.884Z,15.30
2022-11-05T23:53:41.551Z,15.28
2022-11-05T23:56:10.562Z,15.24
2022-11-05T23:58:38.854Z,15.23
